Home > Products > Valid Products > TAF

000
FTUS43 KIND 012300
TAFLAF
TAF
KLAF 012320Z 0200/0224 18009KT P6SM SCT250
     FM020900 17010KT P6SM OVC100
     FM021100 19013KT P6SM VCSH OVC025
     FM021300 20013G22KT 4SM -RA BR OVC015
     FM021600 22012G29KT 4SM -TSRA OVC015CB
      AMD LTD TO CLD VIS AND WIND 0201/0213=



000
FTUS43 KIND 012300
TAFIND
TAF
KIND 012320Z 0200/0306 16010KT P6SM SCT250
     FM020900 16011KT P6SM OVC100
     FM021100 17013KT P6SM VCSH OVC025
     FM021300 20015G21KT 4SM -RA BR OVC015
     FM021600 21019G27KT 4SM -TSRA OVC015CB
     FM030000 22016G26KT 4SM -RA BR OVC015=



000
FTUS43 KIND 012000 AAA
TAFIND
TAF AMD
KIND 012025Z 0120/0224 17010G15KT P6SM FEW250
     FM020000 16008KT P6SM SCT250
     FM020900 16011KT P6SM OVC100
     FM021100 19015KT P6SM VCSH OVC020
     FM021500 20012KT 4SM -RA BR OVC015=



000
FTUS43 KIND 012000 AAA
TAFIND
TAF AMD
KIND 012025Z 0120/0224 17010G15KT P6SM FEW250
     FM020000 16008KT P6SM SCT250
     FM020900 16011KT P6SM OVC100
     FM021100 19015KT P6SM VCSH OVC020
     FM021500 20012KT 4SM -RA BR OVC015=



000
FTUS43 KIND 011700
TAFLAF
TAF
KLAF 011725Z 0118/0218 17009KT P6SM SCT250
     FM020900 17010KT P6SM OVC100
     FM021100 20013KT P6SM VCSH OVC020
     FM021400 20013KT 4SM -RA BR OVC015=



000
FTUS43 KIND 011400 AAA
TAFIND
TAF AMD
KIND 011420Z 0114/0218 18009KT P6SM SCT250
     FM021200 19015KT P6SM VCSH OVC050=



000
FTUS43 KIND 011100
TAFLAF
TAF
KLAF 011120Z 0112/0212 16004KT P6SM SKC
     FM011600 18014KT P6SM SCT250
      AMD LTD TO CLD VIS AND WIND TIL 011300=



000
FTUS43 KIND 011100
TAFLAF
TAF
KLAF 011120Z 0112/0212 16004KT P6SM SKC
     FM011600 18014KT P6SM SCT250
      AMD LTD TO CLD VIS AND WIND TIL 011300=



000
FTUS43 KIND 011100
TAFIND
TAF
KIND 011120Z 0112/0218 17006KT P6SM SKC
     FM011600 18014KT P6SM SCT250
     FM021200 19015KT P6SM VCSH OVC050=



000
FTUS43 KIND 011100
TAFIND
TAF
KIND 011120Z 0112/0218 17006KT P6SM SKC
     FM011600 18014KT P6SM SCT250
     FM021200 19015KT P6SM VCSH OVC050=



000
FTUS43 KIND 010800 AAA
TAFIND
TAF AMD
KIND 010827Z 0108/0212 07005KT P6SM SKC
     FM011400 16007KT P6SM SCT250=



000
FTUS43 KIND 010500
TAFLAF
TAF
KLAF 010520Z 0106/0206 11006KT P6SM SKC
     FM011200 18006KT P6SM SCT250
      AMD LTD TO CLD VIS AND WIND TIL 011300=



000
FTUS43 KIND 010500
TAFIND
TAF
KIND 010520Z 0106/0212 07005KT P6SM SKC
     FM011400 16007KT P6SM SCT250=



000
FTUS43 KIND 010500
TAFIND
TAF
KIND 010520Z 0106/0212 07005KT P6SM SKC
     FM011400 16007KT P6SM SCT250=



000
FTUS43 KIND 010500
TAFLAF
TAF
KLAF 010520Z 0106/0206 11006KT P6SM SKC
     FM011200 18006KT P6SM SCT250
      AMD LTD TO CLD VIS AND WIND TIL 011300=



000
FTUS43 KIND 010200 AAA
TAFIND
TAF AMD
KIND 010228Z 0102/0206 04005KT P6SM SKC
     FM011400 16006KT P6SM SCT250=



000
FTUS43 KIND 312300
TAFIND
TAF
KIND 312320Z 0100/0206 35013KT P6SM SCT040
     FM010100 03007KT P6SM SKC
     FM011400 16006KT P6SM SCT250=



000
FTUS43 KIND 312300
TAFLAF
TAF
KLAF 312320Z 0100/0124 35009KT P6SM SCT025
     FM010100 08005KT P6SM SKC
     FM011200 18006KT P6SM SCT250
      AMD LTD TO CLD VIS AND WIND 0101/0113=



000
FTUS43 KIND 312100 AAA
TAFIND
TAF AMD
KIND 312112Z 3121/0124 31015G22KT P6SM SCT040
     FM010000 VRB05KT P6SM SKC
     FM011400 18006KT P6SM SCT250=



000
FTUS43 KIND 311700
TAFIND
TAF
KIND 311720Z 3118/0124 31015G22KT P6SM FEW035
     FM010000 VRB05KT P6SM SKC
     FM011400 18006KT P6SM SCT250=



000
FTUS43 KIND 311700
TAFLAF
TAF
KLAF 311720Z 3118/0118 33015G23KT P6SM SCT025
     FM010000 VRB04KT P6SM SKC
     FM011400 18006KT P6SM SCT250=



000
FTUS43 KIND 311700
TAFLAF
TAF
KLAF 311720Z 3118/0118 33015G23KT P6SM SCT025
     FM010000 VRB04KT P6SM SKC
     FM011400 18006KT P6SM SCT250=



000
FTUS43 KIND 311700
TAFIND
TAF
KIND 311720Z 3118/0124 31015G22KT P6SM FEW035
     FM010000 VRB05KT P6SM SKC
     FM011400 18006KT P6SM SCT250=



000
FTUS43 KIND 311400 AAA
TAFLAF
TAF AMD
KLAF 311422Z 3114/0112 31014G21KT P6SM FEW025 SCT250
     FM010000 VRB04KT P6SM FEW250=



000
FTUS43 KIND 311400 AAA
TAFLAF
TAF AMD
KLAF 311422Z 3114/0112 31014G21KT P6SM FEW025 SCT250
     FM010000 VRB04KT P6SM FEW250=



000
FTUS43 KIND 311400 AAA
TAFIND
TAF AMD
KIND 311420Z 3114/0118 29015KT P6SM SKC
     FM311700 31015G22KT P6SM SCT250
     FM010000 VRB05KT P6SM FEW250=



000
FTUS43 KIND 311400 AAA
TAFIND
TAF AMD
KIND 311420Z 3114/0118 29015KT P6SM SKC
     FM311700 31015G22KT P6SM SCT250
     FM010000 VRB05KT P6SM FEW250=



000
FTUS43 KIND 311100
TAFLAF
TAF
KLAF 311120Z 3112/0112 25011KT P6SM SCT100 BKN250 WS015/24040KT
     FM311300 31012G19KT P6SM SCT250
     FM010000 VRB04KT P6SM FEW250
      AMD LTD TO CLD VIS AND WIND TIL 311300=



000
FTUS43 KIND 311100
TAFIND
TAF
KIND 311120Z 3112/0118 24015KT P6SM SCT100 BKN250 WS015/24040KT
     FM311400 28015G21KT P6SM SCT250
     FM311700 31012G21KT P6SM SCT250
     FM010000 VRB05KT P6SM FEW250=



000
FTUS43 KIND 310600 AAA
TAFLAF
TAF AMD
KLAF 310627Z 3106/0106 22010KT P6SM SCT100 BKN250 WS015/24050KT
     FM311300 30012G18KT P6SM SCT025
     FM010100 32004KT P6SM SCT250
      AMD LTD TO CLD VIS AND WIND TIL 311300=



000
FTUS43 KIND 310600 AAA
TAFLAF
TAF AMD
KLAF 310627Z 3106/0106 22010KT P6SM SCT100 BKN250 WS015/24050KT
     FM311300 30012G18KT P6SM SCT025
     FM010100 32004KT P6SM SCT250
      AMD LTD TO CLD VIS AND WIND TIL 311300=



000
FTUS43 KIND 310500
TAFIND
TAF
KIND 310520Z 3106/0112 21015KT P6SM SCT100 BKN250 WS015/24050KT
     FM311300 26015G21KT P6SM SCT025
     FM311700 30012G21KT P6SM SCT030
     FM010100 29006KT P6SM SCT250=



000
FTUS43 KIND 310500
TAFIND
TAF
KIND 310520Z 3106/0112 21015KT P6SM SCT100 BKN250 WS015/24050KT
     FM311300 26015G21KT P6SM SCT025
     FM311700 30012G21KT P6SM SCT030
     FM010100 29006KT P6SM SCT250=



000
FTUS43 KIND 310500
TAFLAF
TAF
KLAF 310520Z 3106/0106 24012KT P6SM SCT100 BKN250 WS015/24050KT
     FM311300 30012G18KT P6SM SCT025
     FM010100 32004KT P6SM SCT250
      AMD LTD TO CLD VIS AND WIND TIL 311300=



000
FTUS43 KIND 310500
TAFLAF
TAF
KLAF 310520Z 3106/0106 24012KT P6SM SCT100 BKN250 WS015/24050KT
     FM311300 30012G18KT P6SM SCT025
     FM010100 32004KT P6SM SCT250
      AMD LTD TO CLD VIS AND WIND TIL 311300=



000
FTUS43 KIND 310200 AAA
TAFIND
TAF AMD
KIND 310220Z 3102/0106 21008KT P6SM BKN110
     FM310600 21015KT P6SM SCT250 WS015/24050KT
     FM311300 26015G21KT P6SM SCT025
     FM311700 30012G21KT P6SM SCT030=



000
FTUS43 KIND 310200 AAA
TAFIND
TAF AMD
KIND 310220Z 3102/0106 21008KT P6SM BKN110
     FM310600 21015KT P6SM SCT250 WS015/24050KT
     FM311300 26015G21KT P6SM SCT025
     FM311700 30012G21KT P6SM SCT030=



000
FTUS43 KIND 302300
TAFLAF
TAF
KLAF 302320Z 3100/3124 23008KT P6SM BKN100
     FM310500 24012KT P6SM SCT250 WS015/24050KT
     FM311300 30012G18KT P6SM SCT025
      AMD LTD TO CLD VIS AND WIND 3101/3113=



000
FTUS43 KIND 302300
TAFIND
TAF
KIND 302320Z 3100/0106 22010KT P6SM BKN110
     FM310600 21015KT P6SM SCT250 WS015/24050KT
     FM311300 26015G21KT P6SM SCT025
     FM311700 30012G21KT P6SM SCT030=



000
FTUS43 KIND 302300
TAFIND
TAF
KIND 302320Z 3100/0106 22010KT P6SM BKN110
     FM310600 21015KT P6SM SCT250 WS015/24050KT
     FM311300 26015G21KT P6SM SCT025
     FM311700 30012G21KT P6SM SCT030=



000
FTUS43 KIND 302000 AAA
TAFIND
TAF AMD
KIND 302023Z 3020/3124 28012G19KT P6SM FEW070 BKN250
     FM302300 22010KT P6SM BKN120
     FM310800 24015G23KT P6SM SKC
     FM311500 28015G23KT P6SM SCT025=



000
FTUS43 KIND 302000 AAA
TAFIND
TAF AMD
KIND 302023Z 3020/3124 28012G19KT P6SM FEW070 BKN250
     FM302300 22010KT P6SM BKN120
     FM310800 24015G23KT P6SM SKC
     FM311500 28015G23KT P6SM SCT025=



000
FTUS43 KIND 301700
TAFLAF
TAF
KLAF 301720Z 3018/3118 27011G17KT P6SM SCT250
     FM302200 22008KT P6SM BKN120
     FM310600 25014G20KT P6SM SKC
     FM311400 30012G18KT P6SM SCT025=



000
FTUS43 KIND 301700
TAFIND
TAF
KIND 301720Z 3018/3124 28012KT P6SM FEW250
     FM302300 22010KT P6SM BKN120
     FM310800 24015G23KT P6SM SKC
     FM311500 28015G23KT P6SM SCT025=



000
FTUS43 KIND 301700
TAFIND
TAF
KIND 301720Z 3018/3124 28012KT P6SM FEW250
     FM302300 22010KT P6SM BKN120
     FM310800 24015G23KT P6SM SKC
     FM311500 28015G23KT P6SM SCT025=



000
FTUS43 KIND 301700
TAFLAF
TAF
KLAF 301720Z 3018/3118 27011G17KT P6SM SCT250
     FM302200 22008KT P6SM BKN120
     FM310600 25014G20KT P6SM SKC
     FM311400 30012G18KT P6SM SCT025=



000
FTUS43 KIND 301400 AAA
TAFIND
TAF AMD
KIND 301415Z 3014/3118 29012KT P6SM SKC
     FM301700 28012G17KT P6SM SCT250
     FM302200 22010KT P6SM BKN150
     FM311000 23012KT P6SM SKC=



000
FTUS43 KIND 301100
TAFIND
TAF
KIND 301120Z 3012/3118 28008KT P6SM SKC
     FM301600 29012G17KT P6SM SCT250
     FM302200 22010KT P6SM BKN150
     FM311000 23012KT P6SM SKC=



000
FTUS43 KIND 301100
TAFIND
TAF
KIND 301120Z 3012/3118 28008KT P6SM SKC
     FM301600 29012G17KT P6SM SCT250
     FM302200 22010KT P6SM BKN150
     FM311000 23012KT P6SM SKC=



000
FTUS43 KIND 301100
TAFLAF
TAF
KLAF 301120Z 3012/3112 28008KT P6SM SKC
     FM301600 29012G17KT P6SM SCT250
     FM302000 22011KT P6SM BKN150
     FM310000 23006KT P6SM BKN150
     FM310800 23012KT P6SM SKC
      AMD LTD TO CLD VIS AND WIND TIL 301300=



000
FTUS43 KIND 301100
TAFLAF
TAF
KLAF 301120Z 3012/3112 28008KT P6SM SKC
     FM301600 29012G17KT P6SM SCT250
     FM302000 22011KT P6SM BKN150
     FM310000 23006KT P6SM BKN150
     FM310800 23012KT P6SM SKC
      AMD LTD TO CLD VIS AND WIND TIL 301300=



000
FTUS43 KIND 300800 AAA
TAFIND
TAF AMD
KIND 300820Z 3008/3112 28008KT P6SM SCT035
     FM301400 29012KT P6SM SCT250
     FM302200 24010KT P6SM BKN150=



000
FTUS43 KIND 300800 AAA
TAFIND
TAF AMD
KIND 300820Z 3008/3112 28008KT P6SM SCT035
     FM301400 29012KT P6SM SCT250
     FM302200 24010KT P6SM BKN150=



000
FTUS43 KIND 300500
TAFLAF
TAF
KLAF 300520Z 3006/3106 29010KT P6SM SCT035
     FM301300 29008KT P6SM SCT250
     FM302000 26011KT P6SM BKN150
      AMD LTD TO CLD VIS AND WIND TIL 301300=



000
FTUS43 KIND 300500
TAFLAF
TAF
KLAF 300520Z 3006/3106 29010KT P6SM SCT035
     FM301300 29008KT P6SM SCT250
     FM302000 26011KT P6SM BKN150
      AMD LTD TO CLD VIS AND WIND TIL 301300=



000
FTUS43 KIND 300500
TAFIND
TAF
KIND 300520Z 3006/3112 28014KT P6SM SCT025 BKN045
     FM300800 29011KT P6SM SCT035
     FM301400 29012KT P6SM SCT250
     FM302200 24010KT P6SM BKN150=



000
FTUS43 KIND 300200 AAA
TAFLAF
TAF AMD
KLAF 300225Z 3002/3024 24012KT P6SM SCT025 BKN050
     FM300500 28012KT P6SM SCT025 BKN050
     FM300800 30008KT P6SM SCT250
      AMD LTD TO CLD VIS AND WIND TIL 301300=



000
FTUS43 KIND 300200 AAA
TAFLAF
TAF AMD
KLAF 300225Z 3002/3024 24012KT P6SM SCT025 BKN050
     FM300500 28012KT P6SM SCT025 BKN050
     FM300800 30008KT P6SM SCT250
      AMD LTD TO CLD VIS AND WIND TIL 301300=



000
FTUS43 KIND 300200 AAA
TAFIND
TAF AMD
KIND 300221Z 3002/3106 23014KT P6SM SCT030 BKN050
     FM300600 28014KT P6SM SCT025 BKN035
     FM301100 29012KT P6SM SCT250=



000
FTUS43 KIND 300200 AAA
TAFIND
TAF AMD
KIND 300221Z 3002/3106 23014KT P6SM SCT030 BKN050
     FM300600 28014KT P6SM SCT025 BKN035
     FM301100 29012KT P6SM SCT250=



    US Dept of Commerce
    National Oceanic and Atmospheric Administration
    National Weather Service
    1325 East West Highway
    Silver Spring, MD 20910
    Page Author: NWS Internet Services Team
Disclaimer
Information Quality
Credits
Glossary
Privacy Policy
Freedom of Information Act (FOIA)
About Us
Career Opportunities